createdAt,value
2023-05-07T00:00:27.519Z,64.91
2023-05-07T00:03:50.712Z,64.91
2023-05-07T00:06:53.929Z,64.89
2023-05-07T00:09:56.921Z,65.00
2023-05-07T00:13:00.255Z,64.87
2023-05-07T00:16:04.271Z,64.79
2023-05-07T00:19:07.288Z,64.90
2023-05-07T00:22:10.366Z,64.97
2023-05-07T00:25:13.453Z,64.89
2023-05-07T00:28:16.437Z,65.02
2023-05-07T00:31:19.456Z,65.02
2023-05-07T00:34:23.366Z,64.89
2023-05-07T00:37:26.480Z,64.99
2023-05-07T00:40:29.855Z,64.87
2023-05-07T00:43:33.228Z,64.97
2023-05-07T00:46:36.643Z,64.93
2023-05-07T00:49:43.634Z,65.04
2023-05-07T00:52:46.711Z,64.84
2023-05-07T00:55:50.058Z,64.98
2023-05-07T00:58:53.502Z,64.95
2023-05-07T01:01:56.545Z,65.05
2023-05-07T01:05:01.846Z,64.93
2023-05-07T01:08:06.309Z,64.90
2023-05-07T01:11:10.628Z,64.87
2023-05-07T01:14:13.910Z,64.75
2023-05-07T01:17:17.809Z,64.84
2023-05-07T01:20:23.644Z,64.77
2023-05-07T01:23:28.927Z,64.84
2023-05-07T01:26:32.115Z,64.77
2023-05-07T01:29:35.456Z,64.80
2023-05-07T01:33:01.146Z,64.85
2023-05-07T01:36:07.457Z,64.86
2023-05-07T01:39:11.750Z,64.79
2023-05-07T01:42:14.731Z,64.76
2023-05-07T01:45:17.970Z,64.79
2023-05-07T01:48:21.392Z,64.80
2023-05-07T01:51:24.559Z,64.84
2023-05-07T01:54:31.873Z,64.88
2023-05-07T01:57:35.350Z,64.88
2023-05-07T02:00:38.574Z,64.73
2023-05-07T02:03:41.857Z,64.68
2023-05-07T02:06:49.339Z,64.64
2023-05-07T02:09:53.297Z,64.63
2023-05-07T02:12:56.560Z,64.50
2023-05-07T02:15:59.709Z,64.69
2023-05-07T02:19:03.854Z,64.61
2023-05-07T02:22:06.974Z,64.48
2023-05-07T02:25:10.032Z,64.54
2023-05-07T02:28:13.346Z,64.53
2023-05-07T02:31:26.689Z,64.51
2023-05-07T02:34:30.091Z,64.48
2023-05-07T02:37:33.210Z,64.53
2023-05-07T02:40:39.750Z,64.49
2023-05-07T02:43:42.832Z,64.50
2023-05-07T02:46:46.310Z,64.40
2023-05-07T02:49:49.545Z,64.48
2023-05-07T02:52:52.591Z,64.52
2023-05-07T02:56:00.440Z,64.41
2023-05-07T02:59:03.492Z,64.43
2023-05-07T03:02:09.568Z,64.37
2023-05-07T03:05:13.658Z,64.37
2023-05-07T03:08:16.655Z,64.40
2023-05-07T03:11:19.767Z,64.33
2023-05-07T03:14:22.876Z,64.37
2023-05-07T03:17:26.064Z,64.24
2023-05-07T03:20:29.327Z,64.32
2023-05-07T03:23:32.379Z,64.30
2023-05-07T03:26:35.372Z,64.20
2023-05-07T03:29:39.080Z,64.28
2023-05-07T03:32:42.462Z,64.18
2023-05-07T03:35:47.515Z,64.30
2023-05-07T03:38:53.554Z,64.34
2023-05-07T03:41:59.328Z,64.25
2023-05-07T03:45:02.697Z,64.27
2023-05-07T03:48:06.457Z,64.28
2023-05-07T03:51:10.002Z,64.43
2023-05-07T03:54:13.290Z,64.35
2023-05-07T03:57:19.752Z,64.36
2023-05-07T04:00:23.573Z,64.30
2023-05-07T04:03:26.718Z,64.19
2023-05-07T04:06:30.807Z,64.22
2023-05-07T04:09:34.795Z,64.12
2023-05-07T04:12:38.745Z,64.21
2023-05-07T04:15:42.841Z,64.01
2023-05-07T04:18:47.331Z,64.06
2023-05-07T04:21:50.635Z,64.02
2023-05-07T04:24:53.856Z,64.05
2023-05-07T04:27:58.057Z,63.89
2023-05-07T04:31:02.790Z,64.00
2023-05-07T04:34:07.227Z,63.84
2023-05-07T04:37:10.598Z,63.82
2023-05-07T04:40:14.457Z,63.89
2023-05-07T04:43:18.155Z,63.89
2023-05-07T04:46:25.762Z,63.84
2023-05-07T04:49:29.943Z,63.97
2023-05-07T04:52:33.876Z,63.87
2023-05-07T04:55:36.914Z,63.83
2023-05-07T04:58:40.513Z,63.82
2023-05-07T05:01:44.552Z,63.94
2023-05-07T05:04:47.826Z,63.79
2023-05-07T05:07:52.688Z,63.79
2023-05-07T05:10:56.316Z,63.64
2023-05-07T05:14:01.692Z,63.68
2023-05-07T05:17:04.929Z,63.50
2023-05-07T05:20:08.591Z,63.53
2023-05-07T05:23:12.065Z,63.40
2023-05-07T05:26:15.741Z,63.29
2023-05-07T05:29:18.824Z,63.33
2023-05-07T05:32:22.073Z,63.33
2023-05-07T05:35:25.637Z,63.39
2023-05-07T05:38:28.881Z,63.22
2023-05-07T05:41:32.799Z,63.28
2023-05-07T05:44:36.107Z,63.22
2023-05-07T05:47:40.232Z,63.24
2023-05-07T05:50:43.771Z,63.20
2023-05-07T05:53:47.091Z,63.13
2023-05-07T05:56:50.977Z,63.06
2023-05-07T05:59:54.595Z,63.11
2023-05-07T06:02:57.732Z,63.28
2023-05-07T06:06:02.128Z,63.24
2023-05-07T06:09:05.634Z,63.22
2023-05-07T06:12:13.807Z,63.20
2023-05-07T06:15:17.150Z,63.25
2023-05-07T06:18:20.533Z,63.28
2023-05-07T06:21:23.753Z,63.17
2023-05-07T06:24:26.811Z,63.02
2023-05-07T06:27:29.923Z,63.03
2023-05-07T06:30:33.433Z,63.15
2023-05-07T06:33:36.594Z,63.07
2023-05-07T06:36:40.094Z,63.08
2023-05-07T06:39:52.136Z,63.10
2023-05-07T06:42:55.391Z,63.00
2023-05-07T06:46:03.986Z,62.92
2023-05-07T06:49:07.073Z,62.93
2023-05-07T06:52:10.111Z,62.86
2023-05-07T06:55:13.462Z,63.01
2023-05-07T06:58:16.567Z,62.88
2023-05-07T07:01:19.854Z,62.83
2023-05-07T07:04:24.972Z,62.64
2023-05-07T07:07:32.824Z,62.37
2023-05-07T07:10:36.052Z,62.52
2023-05-07T07:13:41.152Z,62.40
2023-05-07T07:16:44.901Z,62.54
2023-05-07T07:19:47.923Z,62.40
2023-05-07T07:22:51.210Z,62.42
2023-05-07T07:25:54.423Z,62.42
2023-05-07T07:28:57.678Z,62.31
2023-05-07T07:32:01.381Z,62.42
2023-05-07T07:35:05.768Z,62.44
2023-05-07T07:38:09.162Z,62.38
2023-05-07T07:41:12.341Z,62.38
2023-05-07T07:44:16.584Z,62.46
2023-05-07T07:47:22.811Z,62.54
2023-05-07T07:53:35.904Z,62.60
2023-05-07T07:56:39.192Z,62.47
2023-05-07T07:59:44.457Z,62.31
2023-05-07T08:02:48.527Z,62.45
2023-05-07T08:05:56.581Z,62.24
2023-05-07T08:08:59.947Z,62.38
2023-05-07T08:12:03.215Z,62.56
2023-05-07T08:15:07.919Z,62.52
2023-05-07T08:18:11.113Z,62.59
2023-05-07T08:21:14.846Z,62.54
2023-05-07T08:24:18.970Z,62.39
2023-05-07T08:27:22.114Z,62.51
2023-05-07T08:30:25.228Z,62.37
2023-05-07T08:33:28.907Z,62.35
2023-05-07T08:36:33.606Z,62.39
2023-05-07T08:39:36.750Z,61.99
2023-05-07T08:42:41.624Z,62.04
2023-05-07T08:45:47.154Z,62.02
2023-05-07T08:48:52.686Z,61.91
2023-05-07T08:51:56.862Z,61.60
2023-05-07T08:55:03.265Z,61.45
2023-05-07T08:58:06.913Z,61.42
2023-05-07T09:01:14.748Z,61.50
2023-05-07T09:04:18.528Z,61.62
2023-05-07T09:07:23.493Z,61.69
2023-05-07T09:10:27.639Z,61.51
2023-05-07T09:13:30.751Z,61.55
2023-05-07T09:16:34.401Z,61.50
2023-05-07T09:19:38.090Z,61.42
2023-05-07T09:22:41.339Z,61.39
2023-05-07T09:25:47.786Z,61.47
2023-05-07T09:29:02.282Z,61.45
2023-05-07T09:32:09.803Z,61.36
2023-05-07T09:42:54.904Z,61.53
2023-05-07T09:45:59.456Z,61.42
2023-05-07T09:49:02.563Z,61.40
2023-05-07T09:52:09.106Z,61.39
2023-05-07T09:55:13.536Z,61.42
2023-05-07T09:58:16.632Z,61.50
2023-05-07T10:01:22.442Z,61.58
2023-05-07T10:04:26.277Z,61.67
2023-05-07T10:07:29.254Z,61.55
2023-05-07T10:10:36.992Z,61.50
2023-05-07T10:13:40.539Z,61.56
2023-05-07T10:16:45.090Z,61.55
2023-05-07T10:19:56.764Z,61.30
2023-05-07T10:23:00.323Z,60.97
2023-05-07T10:26:09.015Z,61.22
2023-05-07T10:29:27.044Z,61.08
2023-05-07T10:32:47.979Z,60.96
2023-05-07T10:36:01.064Z,60.97
2023-05-07T10:39:03.572Z,61.02
2023-05-07T10:42:12.638Z,60.91
2023-05-07T10:45:17.096Z,60.93
2023-05-07T10:48:30.159Z,60.94
2023-05-07T10:51:40.614Z,60.94
2023-05-07T10:55:25.463Z,60.90
2023-05-07T10:58:53.462Z,60.95
2023-05-07T11:02:06.626Z,61.08
2023-05-07T11:05:29.114Z,61.05
2023-05-07T11:08:52.817Z,61.14
2023-05-07T11:11:56.725Z,61.04
2023-05-07T11:15:06.977Z,61.04
2023-05-07T11:18:11.628Z,61.09
2023-05-07T11:21:32.896Z,61.19
2023-05-07T11:24:42.934Z,60.91
2023-05-07T11:27:45.909Z,60.93
2023-05-07T11:30:47.968Z,61.13
2023-05-07T11:33:52.860Z,61.17
2023-05-07T11:36:56.212Z,62.68
2023-05-07T11:40:07.235Z,61.67
2023-05-07T11:43:12.234Z,61.22
2023-05-07T11:46:14.804Z,61.21
2023-05-07T11:49:17.600Z,61.09
2023-05-07T11:52:21.032Z,60.97
2023-05-07T11:55:25.286Z,60.87
2023-05-07T11:58:27.089Z,61.05
2023-05-07T12:01:28.973Z,60.98
2023-05-07T12:04:30.972Z,60.94
2023-05-07T12:07:34.678Z,60.97
2023-05-07T12:10:41.586Z,60.88
2023-05-07T12:13:44.035Z,60.86
2023-05-07T12:16:46.739Z,60.75
2023-05-07T12:19:48.885Z,60.65
2023-05-07T12:22:52.394Z,60.69
2023-05-07T12:25:54.184Z,60.60
2023-05-07T12:28:58.122Z,60.64
2023-05-07T12:32:00.206Z,60.73
2023-05-07T12:35:06.766Z,60.72
2023-05-07T12:38:17.572Z,60.70
2023-05-07T12:41:19.385Z,60.63
2023-05-07T12:44:24.895Z,60.58
2023-05-07T12:47:26.681Z,60.59
2023-05-07T12:50:33.127Z,60.58
2023-05-07T12:53:40.642Z,60.51
2023-05-07T12:56:42.404Z,60.55
2023-05-07T12:59:44.140Z,60.52
2023-05-07T13:02:46.092Z,60.66
2023-05-07T13:05:47.850Z,60.66
2023-05-07T13:08:49.794Z,60.70
2023-05-07T13:11:51.582Z,60.76
2023-05-07T13:14:53.223Z,60.72
2023-05-07T13:17:55.720Z,60.63
2023-05-07T13:20:58.131Z,60.59
2023-05-07T13:24:00.289Z,60.47
2023-05-07T13:27:02.034Z,60.50
2023-05-07T13:30:05.932Z,60.39
2023-05-07T13:33:07.920Z,60.48
2023-05-07T13:36:09.877Z,60.21
2023-05-07T13:39:11.635Z,60.35
2023-05-07T13:42:13.453Z,60.26
2023-05-07T13:45:15.587Z,60.35
2023-05-07T13:48:17.427Z,60.37
2023-05-07T13:51:19.158Z,60.26
2023-05-07T13:54:21.202Z,60.23
2023-05-07T13:57:22.977Z,60.20
2023-05-07T14:00:26.536Z,60.26
2023-05-07T14:03:28.438Z,60.29
2023-05-07T14:06:30.205Z,60.23
2023-05-07T14:09:31.911Z,60.31
2023-05-07T14:12:33.927Z,60.28
2023-05-07T14:15:35.716Z,60.48
2023-05-07T14:18:38.902Z,60.48
2023-05-07T14:21:41.637Z,60.47
2023-05-07T14:24:43.970Z,60.39
2023-05-07T14:27:47.070Z,60.58
2023-05-07T14:30:48.790Z,60.55
2023-05-07T14:33:50.965Z,60.46
2023-05-07T14:36:52.698Z,60.46
2023-05-07T14:39:54.432Z,60.48
2023-05-07T14:42:57.608Z,60.44
2023-05-07T14:45:59.312Z,60.52
2023-05-07T14:49:02.977Z,60.40
2023-05-07T14:52:06.512Z,60.34
2023-05-07T14:55:08.760Z,60.12
2023-05-07T14:58:11.573Z,60.06
2023-05-07T15:01:13.957Z,60.10
2023-05-07T15:04:15.860Z,60.04
2023-05-07T15:07:17.861Z,60.17
2023-05-07T15:10:19.761Z,60.32
2023-05-07T15:13:22.078Z,60.23
2023-05-07T15:16:23.804Z,60.25
2023-05-07T15:19:29.232Z,60.22
2023-05-07T15:22:31.188Z,60.29
2023-05-07T15:25:34.093Z,60.41
2023-05-07T15:28:36.004Z,60.35
2023-05-07T15:31:39.121Z,60.39
2023-05-07T15:34:41.627Z,60.87
2023-05-07T15:37:44.091Z,60.55
2023-05-07T15:40:45.873Z,60.47
2023-05-07T15:43:50.999Z,60.41
2023-05-07T15:46:54.555Z,60.43
2023-05-07T15:49:56.287Z,60.54
2023-05-07T15:52:58.400Z,60.49
2023-05-07T15:56:00.506Z,60.32
2023-05-07T15:59:04.517Z,60.49
2023-05-07T16:02:07.689Z,60.57
2023-05-07T16:05:10.618Z,60.50
2023-05-07T16:08:12.904Z,60.31
2023-05-07T16:11:15.036Z,60.33
2023-05-07T16:14:16.767Z,60.25
2023-05-07T16:17:18.678Z,60.28
2023-05-07T16:20:21.265Z,60.17
2023-05-07T16:23:23.002Z,60.22
2023-05-07T16:26:24.771Z,60.15
2023-05-07T16:29:26.476Z,60.22
2023-05-07T16:32:29.557Z,60.24
2023-05-07T16:35:31.318Z,60.40
2023-05-07T16:38:33.665Z,60.37
2023-05-07T16:41:35.795Z,60.32
2023-05-07T16:44:37.772Z,60.25
2023-05-07T16:47:39.610Z,60.34
2023-05-07T16:50:43.834Z,60.52
2023-05-07T16:53:45.525Z,60.52
2023-05-07T16:56:47.670Z,60.40
2023-05-07T16:59:49.336Z,60.40
2023-05-07T17:02:51.360Z,60.26
2023-05-07T17:05:53.289Z,60.11
2023-05-07T17:08:55.164Z,60.18
2023-05-07T17:11:57.083Z,60.08
2023-05-07T17:14:58.956Z,60.01
2023-05-07T17:18:01.248Z,60.01
2023-05-07T17:21:03.018Z,60.07
2023-05-07T17:24:05.610Z,60.14
2023-05-07T17:27:07.480Z,59.95
2023-05-07T17:30:09.903Z,60.17
2023-05-07T17:33:20.755Z,60.17
2023-05-07T17:36:24.078Z,60.08
2023-05-07T17:39:25.849Z,60.04
2023-05-07T17:42:27.521Z,60.07
2023-05-07T17:45:29.273Z,60.13
2023-05-07T17:48:30.950Z,60.12
2023-05-07T17:51:45.926Z,60.06
2023-05-07T17:54:54.322Z,59.91
2023-05-07T17:57:56.041Z,59.84
2023-05-07T18:00:57.823Z,59.88
2023-05-07T18:03:59.722Z,59.90
2023-05-07T18:07:01.434Z,59.97
2023-05-07T18:10:03.463Z,59.98
2023-05-07T18:13:05.290Z,59.84
2023-05-07T18:16:07.235Z,59.75
2023-05-07T18:19:09.008Z,59.83
2023-05-07T18:22:10.761Z,59.85
2023-05-07T18:25:12.516Z,59.85
2023-05-07T18:28:14.934Z,59.77
2023-05-07T18:31:16.555Z,59.70
2023-05-07T18:34:18.341Z,59.76
2023-05-07T18:37:20.622Z,59.80
2023-05-07T18:40:35.785Z,59.81
2023-05-07T18:44:06.217Z,59.79
2023-05-07T18:47:28.726Z,59.69
2023-05-07T18:50:30.609Z,59.66
2023-05-07T18:53:32.260Z,59.71
2023-05-07T18:56:33.921Z,59.73
2023-05-07T18:59:35.625Z,59.63
2023-05-07T19:02:38.107Z,59.67
2023-05-07T19:05:40.559Z,59.63
2023-05-07T19:08:42.328Z,59.67
2023-05-07T19:11:44.101Z,59.56
2023-05-07T19:14:46.093Z,59.48
2023-05-07T19:17:47.885Z,59.49
2023-05-07T19:20:52.171Z,59.38
2023-05-07T19:23:56.855Z,59.47
2023-05-07T19:26:58.608Z,59.40
2023-05-07T19:30:00.292Z,59.50
2023-05-07T19:33:02.459Z,59.43
2023-05-07T19:36:06.869Z,59.53
2023-05-07T19:39:11.719Z,59.53
2023-05-07T19:42:13.560Z,59.61
2023-05-07T19:45:15.680Z,59.52
2023-05-07T19:48:17.377Z,59.63
2023-05-07T19:51:19.136Z,59.50
2023-05-07T19:54:21.098Z,59.49
2023-05-07T19:57:22.856Z,59.51
2023-05-07T20:00:27.307Z,59.56
2023-05-07T20:03:30.659Z,59.61
2023-05-07T20:06:32.582Z,59.48
2023-05-07T20:09:34.263Z,59.43
2023-05-07T20:12:36.592Z,59.47
2023-05-07T20:15:39.117Z,59.44
2023-05-07T20:18:40.985Z,59.49
2023-05-07T20:21:42.703Z,59.56
2023-05-07T20:24:44.364Z,59.48
2023-05-07T20:27:46.070Z,59.47
2023-05-07T20:30:47.853Z,59.50
2023-05-07T20:33:49.714Z,59.51
2023-05-07T20:36:51.601Z,59.51
2023-05-07T20:39:53.285Z,59.49
2023-05-07T20:42:55.005Z,59.49
2023-05-07T20:46:03.570Z,59.50
2023-05-07T20:49:05.503Z,59.54
2023-05-07T20:52:10.803Z,59.51
2023-05-07T20:55:13.295Z,59.52
2023-05-07T20:58:15.078Z,59.37
2023-05-07T21:01:16.954Z,59.32
2023-05-07T21:04:18.868Z,59.29
2023-05-07T21:07:20.609Z,59.24
2023-05-07T21:10:22.262Z,59.21
2023-05-07T21:13:24.061Z,59.26
2023-05-07T21:16:25.799Z,59.25
2023-05-07T21:19:27.472Z,59.22
2023-05-07T21:22:29.820Z,59.21
2023-05-07T21:25:31.452Z,59.22
2023-05-07T21:28:33.202Z,59.24
2023-05-07T21:31:35.033Z,59.19
2023-05-07T21:34:36.857Z,59.27
2023-05-07T21:37:38.495Z,59.23
2023-05-07T21:40:40.288Z,59.30
2023-05-07T21:43:41.938Z,59.32
2023-05-07T21:46:43.774Z,59.26
2023-05-07T21:49:45.865Z,59.25
2023-05-07T21:52:48.320Z,59.24
2023-05-07T21:55:49.855Z,59.28
2023-05-07T21:58:51.497Z,59.31
2023-05-07T22:01:53.233Z,59.34
2023-05-07T22:04:55.171Z,59.31
2023-05-07T22:07:56.896Z,59.34
2023-05-07T22:10:58.648Z,59.40
2023-05-07T22:14:00.392Z,59.37
2023-05-07T22:17:02.131Z,59.40
2023-05-07T22:20:04.166Z,59.54
2023-05-07T22:23:05.828Z,59.48
2023-05-07T22:26:13.955Z,59.42
2023-05-07T22:29:15.712Z,59.52
2023-05-07T22:32:17.381Z,59.50
2023-05-07T22:35:19.207Z,59.53
2023-05-07T22:38:20.881Z,59.57
2023-05-07T22:41:23.282Z,59.58
2023-05-07T22:44:25.101Z,59.55
2023-05-07T22:47:32.739Z,59.62
2023-05-07T22:50:38.234Z,59.58
2023-05-07T22:53:40.473Z,59.67
2023-05-07T22:56:42.086Z,59.83
2023-05-07T22:59:43.737Z,59.90
2023-05-07T23:02:45.987Z,60.02
2023-05-07T23:05:47.793Z,60.10
2023-05-07T23:08:49.559Z,60.17
2023-05-07T23:11:51.261Z,60.30
2023-05-07T23:14:52.897Z,60.28
2023-05-07T23:17:54.587Z,60.30
2023-05-07T23:20:56.308Z,60.42
2023-05-07T23:23:58.013Z,60.36
2023-05-07T23:26:59.751Z,60.41
2023-05-07T23:30:01.680Z,60.48
2023-05-07T23:33:03.533Z,60.53
2023-05-07T23:36:06.512Z,60.50
2023-05-07T23:39:08.497Z,60.46
2023-05-07T23:42:10.292Z,60.46
2023-05-07T23:45:12.047Z,60.49
2023-05-07T23:48:14.396Z,60.40
2023-05-07T23:51:16.049Z,60.45
2023-05-07T23:54:17.890Z,60.48
2023-05-07T23:57:19.564Z,60.44
